Main page
METAR-TAF:

METAR-TAF

Airports :

RAF Topcliffe

Topcliffe, England

latitude: 54-12N, longitude: 001-23W, elevation: 28 m

Current weather observation

The report was made 37 minutes ago, at 00:50 UTC
Wind 8 kt from the Southeast
Temperature 8°C
Humidity 87%
Pressure 1028 hPa
Visibility 10 km or more

METAR: EGXZ 170050Z AUTO 14008KT 9999 OVC014/// 08/06 Q1028

Time: 01:27 (01:27 UTC)

Forecast

The report was made 14 hours and 51 minutes ago, at 10:36 UTC
Forecast valid from 16 at 12 UTC to 16 at 18 UTC
Wind 8 kt from the South/Southeast
Visibility: 0200 m
fog
Becoming
from 16 at 12 UTC to 16 at 15 UTC
Visibility: 1500 m
Overcast at a height of 200 ft
mist
Probability 40%
from 16 at 15 UTC to 16 at 18 UTC
Visibility: 3000 m
Broken clouds at a height of 500 ft

TAF: EGXZ 161036Z 1612/1618 15008KT 0200 FG VV/// BECMG 1612/1615 1500 BR OVC002 PROB40 1615/1618 3000 BKN005

Weather observations and forecasts of more than 4000 airports (METAR and TAF reports).

The available stations are represented by yellow and red dots on the map.

Hover mouse over dot to see the name of the station.

Then click to see weather observations and forecasts.

To change the map : click on the green buttons with a black cross to zoom in, on the green button with a dash to zoom out, or on the green arrows for adjacent maps.


METAR-TAF: